Time;durP1;ratioP1;P1;durP2;ratioP2;P2;SDS_P1;SDS_P2;PMS_P1;PMS_P2;Temp;Humidity;BMP_temperature;BMP_pressure;BME280_temperature;BME280_humidity;BME280_pressure;Samples;Min_cycle;Max_cycle;Signal;HPM_P1;HPM_P2
2022/02/27 00:02:06;;;;;;;0.30;0.30;;;1.20;99.90;;;;;;5034807;28;20965;-84
2022/02/27 00:04:33;;;;;;;0.30;0.20;;;1.30;99.90;;;;;;5034675;28;20454;-82
2022/02/27 00:07:01;;;;;;;0.30;0.30;;;1.40;99.90;;;;;;5034289;28;20969;-78
2022/02/27 00:09:29;;;;;;;0.30;0.27;;;1.30;99.90;;;;;;5033521;28;20482;-78
2022/02/27 00:11:56;;;;;;;0.30;0.30;;;1.20;99.90;;;;;;5035204;28;20490;-78
2022/02/27 00:14:23;;;;;;;0.30;0.20;;;1.30;99.90;;;;;;5034218;28;20934;-83
2022/02/27 00:16:50;;;;;;;0.30;0.20;;;1.20;99.90;;;;;;5035300;28;20454;-82
2022/02/27 00:19:17;;;;;;;0.30;0.20;;;1.20;99.90;;;;;;5034966;28;20486;-81
2022/02/27 00:21:44;;;;;;;0.33;0.33;;;1.20;99.90;;;;;;5033793;28;20965;-83
2022/02/27 00:24:12;;;;;;;0.30;0.30;;;1.20;99.90;;;;;;5034426;28;20459;-82
2022/02/27 00:26:39;;;;;;;0.30;0.30;;;1.20;99.90;;;;;;5034993;28;20929;-82
2022/02/27 00:29:06;;;;;;;0.33;0.33;;;1.10;99.90;;;;;;5034930;28;20462;-83
2022/02/27 00:31:32;;;;;;;0.30;0.30;;;1.00;99.90;;;;;;5033719;28;20489;-78
2022/02/27 00:33:59;;;;;;;0.30;0.20;;;1.10;99.90;;;;;;5033854;28;20450;-78
2022/02/27 00:36:26;;;;;;;0.30;0.30;;;1.10;99.90;;;;;;5033659;28;20822;-83
2022/02/27 00:38:53;;;;;;;0.30;0.30;;;1.00;99.90;;;;;;5034812;28;20827;-83
2022/02/27 00:41:21;;;;;;;0.30;0.30;;;1.00;99.90;;;;;;5033462;28;20451;-78
2022/02/27 00:43:48;;;;;;;0.30;0.30;;;1.10;99.90;;;;;;5034627;28;20439;-82
2022/02/27 00:46:15;;;;;;;0.30;0.20;;;1.10;99.90;;;;;;5035157;28;20405;-79
2022/02/27 00:48:42;;;;;;;0.30;0.30;;;1.10;99.90;;;;;;5033276;28;20957;-83
2022/02/27 00:51:09;;;;;;;0.30;0.23;;;1.10;99.90;;;;;;5034771;28;20817;-80
2022/02/27 00:53:35;;;;;;;0.30;0.30;;;1.00;99.90;;;;;;5033203;28;20847;-80
2022/02/27 00:56:02;;;;;;;0.30;0.30;;;1.10;99.90;;;;;;5033504;28;20458;-83
2022/02/27 00:58:30;;;;;;;0.30;0.20;;;1.10;99.90;;;;;;5033684;28;20471;-83
2022/02/27 01:00:57;;;;;;;0.30;0.30;;;1.00;99.90;;;;;;5033497;28;20454;-80
2022/02/27 01:03:24;;;;;;;1.13;0.87;;;1.00;99.90;;;;;;5033425;28;20447;-80
2022/02/27 01:05:50;;;;;;;0.30;0.20;;;1.00;99.90;;;;;;5033414;28;20457;-78
2022/02/27 01:08:17;;;;;;;0.30;0.30;;;1.00;99.90;;;;;;5033184;28;20451;-78
2022/02/27 01:10:44;;;;;;;0.30;0.30;;;1.00;99.90;;;;;;5033152;28;20510;-83
2022/02/27 01:13:11;;;;;;;0.30;0.30;;;1.00;99.90;;;;;;5033648;28;20478;-82
2022/02/27 01:15:39;;;;;;;0.30;0.30;;;1.00;99.90;;;;;;5033909;28;20439;-78
2022/02/27 01:18:05;;;;;;;0.37;0.37;;;0.90;99.90;;;;;;5033262;28;20474;-78
2022/02/27 01:20:32;;;;;;;0.50;0.50;;;0.90;99.90;;;;;;5033090;28;20977;-79
2022/02/27 01:22:59;;;;;;;0.30;0.23;;;0.90;99.90;;;;;;5037136;28;20524;-78
2022/02/27 01:25:26;;;;;;;0.70;0.50;;;0.90;99.90;;;;;;5037349;28;20462;-78
2022/02/27 01:27:52;;;;;;;0.50;0.50;;;0.90;99.90;;;;;;5037253;28;20489;-78
2022/02/27 01:30:19;;;;;;;0.30;0.30;;;0.90;99.90;;;;;;5037303;28;20451;-80
2022/02/27 01:32:47;;;;;;;0.30;0.30;;;0.80;99.90;;;;;;5036820;28;20512;-83
2022/02/27 01:35:14;;;;;;;0.30;0.30;;;0.90;99.90;;;;;;5038144;28;20481;-83
2022/02/27 01:37:41;;;;;;;0.30;0.30;;;0.90;99.90;;;;;;5036881;28;20954;-83
2022/02/27 01:40:09;;;;;;;0.30;0.20;;;0.90;99.90;;;;;;5036842;28;20453;-83
2022/02/27 01:42:35;;;;;;;0.30;0.30;;;0.90;99.90;;;;;;5037451;28;20442;-83
2022/02/27 01:45:03;;;;;;;0.30;0.30;;;0.80;99.90;;;;;;5036734;28;20941;-83
2022/02/27 01:47:30;;;;;;;0.30;0.20;;;0.80;99.90;;;;;;5037269;28;20441;-83
2022/02/27 01:49:58;;;;;;;0.40;0.30;;;0.70;99.90;;;;;;5036655;28;20453;-83
2022/02/27 01:52:25;;;;;;;0.30;0.20;;;0.70;99.90;;;;;;5036684;28;20478;-83
2022/02/27 01:54:52;;;;;;;0.43;0.40;;;0.70;99.90;;;;;;5036826;28;20457;-83
2022/02/27 01:57:20;;;;;;;0.30;0.30;;;0.70;99.90;;;;;;5036771;28;20450;-84
2022/02/27 01:59:47;;;;;;;0.30;0.20;;;0.70;99.90;;;;;;5036561;28;20946;-84
2022/02/27 02:02:14;;;;;;;0.40;0.40;;;0.70;99.90;;;;;;5036694;28;20455;-83
2022/02/27 02:04:42;;;;;;;0.90;0.50;;;0.70;99.90;;;;;;5037002;28;20530;-83
2022/02/27 02:07:10;;;;;;;1.63;0.97;;;0.60;99.90;;;;;;5036295;28;20541;-84
2022/02/27 02:09:37;;;;;;;0.70;0.67;;;0.70;99.90;;;;;;5036280;28;20949;-83
2022/02/27 02:12:06;;;;;;;0.30;0.30;;;0.70;99.90;;;;;;5036152;28;20443;-83
2022/02/27 02:14:32;;;;;;;0.30;0.30;;;0.60;99.90;;;;;;5036297;28;20450;-84
2022/02/27 02:16:59;;;;;;;0.30;0.30;;;0.60;99.90;;;;;;5036716;28;20442;-84
2022/02/27 02:19:27;;;;;;;0.30;0.30;;;0.60;99.90;;;;;;5036401;28;20477;-84
2022/02/27 02:22:00;;;;;;;0.30;0.30;;;0.60;99.90;;;;;;5036068;28;20964;-83
2022/02/27 02:24:27;;;;;;;0.30;0.30;;;0.60;99.90;;;;;;5036329;28;20435;-83
2022/02/27 02:26:54;;;;;;;0.30;0.20;;;0.60;99.90;;;;;;5036039;28;20438;-83
2022/02/27 02:29:22;;;;;;;0.30;0.20;;;0.70;99.90;;;;;;5036183;28;20466;-83
2022/02/27 02:31:51;;;;;;;4.10;1.03;;;0.60;99.90;;;;;;5035622;28;20490;-83
2022/02/27 02:34:19;;;;;;;0.30;0.30;;;0.60;99.90;;;;;;5035972;28;20490;-83
2022/02/27 02:36:47;;;;;;;0.30;0.30;;;0.50;99.90;;;;;;5035852;28;20944;-83
2022/02/27 02:39:16;;;;;;;0.30;0.30;;;0.50;99.90;;;;;;5035947;28;20469;-83
2022/02/27 02:41:43;;;;;;;0.30;0.20;;;0.60;99.90;;;;;;5035720;28;20453;-83
2022/02/27 02:44:11;;;;;;;0.30;0.30;;;0.60;99.90;;;;;;5035935;28;20443;-83
2022/02/27 02:46:38;;;;;;;0.30;0.30;;;0.50;99.90;;;;;;5035665;28;20458;-83
2022/02/27 02:49:06;;;;;;;0.30;0.30;;;0.60;99.90;;;;;;5035801;28;20459;-83
2022/02/27 02:51:33;;;;;;;0.30;0.30;;;0.50;99.90;;;;;;5035604;28;20431;-83
2022/02/27 02:54:00;;;;;;;0.30;0.30;;;0.50;99.90;;;;;;5035345;28;20852;-83
2022/02/27 02:56:28;;;;;;;0.30;0.30;;;0.50;99.90;;;;;;5035763;28;20451;-83
2022/02/27 02:58:55;;;;;;;0.30;0.30;;;0.50;99.90;;;;;;5035329;28;20469;-80
2022/02/27 03:01:23;;;;;;;0.30;0.30;;;0.50;99.90;;;;;;5037353;28;20458;-82
2022/02/27 03:03:51;;;;;;;0.67;0.67;;;0.40;99.90;;;;;;5038896;28;20443;-82
2022/02/27 03:06:18;;;;;;;0.30;0.27;;;0.40;99.90;;;;;;5037697;28;20435;-83
2022/02/27 03:08:47;;;;;;;0.30;0.20;;;0.40;99.90;;;;;;5036195;28;20474;-82
2022/02/27 03:11:14;;;;;;;0.30;0.30;;;0.40;99.90;;;;;;5036242;28;20508;-83
2022/02/27 03:13:42;;;;;;;0.30;0.30;;;0.40;99.90;;;;;;5036875;28;20479;-83
2022/02/27 03:16:09;;;;;;;0.30;0.30;;;0.40;99.90;;;;;;5035110;28;20451;-83
2022/02/27 03:18:36;;;;;;;0.30;0.30;;;0.30;99.90;;;;;;5035170;28;20467;-83
2022/02/27 03:21:03;;;;;;;0.30;0.27;;;0.30;99.90;;;;;;5036025;28;20453;-80
2022/02/27 03:23:31;;;;;;;0.30;0.30;;;0.30;99.90;;;;;;5034911;28;20972;-80
2022/02/27 03:25:58;;;;;;;0.30;0.30;;;0.30;99.90;;;;;;5034850;28;20973;-80
2022/02/27 03:28:25;;;;;;;0.30;0.30;;;0.30;99.90;;;;;;5034684;28;20943;-83
2022/02/27 03:30:54;;;;;;;0.30;0.30;;;0.30;99.90;;;;;;5035076;28;20443;-80
2022/02/27 03:33:21;;;;;;;0.30;0.30;;;0.20;99.90;;;;;;5035246;28;20490;-78
2022/02/27 03:35:48;;;;;;;0.30;0.20;;;0.30;99.90;;;;;;5035075;28;20446;-83
2022/02/27 03:38:15;;;;;;;0.37;0.37;;;0.20;99.90;;;;;;5035938;28;20455;-78
2022/02/27 03:40:42;;;;;;;8.50;1.03;;;0.20;99.90;;;;;;5035022;28;20790;-80
2022/02/27 03:43:09;;;;;;;0.30;0.30;;;0.20;99.90;;;;;;5034591;28;20428;-80
2022/02/27 03:45:35;;;;;;;0.30;0.30;;;0.20;99.90;;;;;;5033918;28;20435;-78
2022/02/27 03:48:04;;;;;;;0.30;0.30;;;0.20;99.90;;;;;;5034911;28;20837;-82
2022/02/27 03:50:31;;;;;;;0.30;0.20;;;0.00;99.90;;;;;;5034776;28;20446;-83
2022/02/27 03:52:57;;;;;;;0.30;0.30;;;0.10;99.90;;;;;;5034544;28;20479;-83
2022/02/27 03:55:24;;;;;;;0.30;0.30;;;0.10;99.90;;;;;;5034344;28;21065;-83
2022/02/27 03:57:51;;;;;;;0.30;0.30;;;0.10;99.90;;;;;;5034283;28;20818;-79
2022/02/27 04:00:19;;;;;;;0.30;0.30;;;0.10;99.90;;;;;;5034512;28;20454;-78
2022/02/27 04:02:46;;;;;;;0.40;0.40;;;0.00;99.90;;;;;;5035959;28;20414;-83
2022/02/27 04:05:15;;;;;;;0.47;0.47;;;0.00;99.90;;;;;;5034169;28;20435;-80
2022/02/27 04:07:42;;;;;;;0.40;0.40;;;0.10;99.90;;;;;;5034324;28;20922;-78
2022/02/27 04:10:09;;;;;;;0.30;0.30;;;0.10;99.90;;;;;;5034894;28;20450;-82
2022/02/27 04:12:36;;;;;;;0.30;0.30;;;0.10;99.90;;;;;;5035474;28;20447;-78
2022/02/27 04:15:03;;;;;;;0.30;0.30;;;0.10;99.90;;;;;;5034182;28;20453;-78
2022/02/27 04:17:31;;;;;;;1.03;0.93;;;0.10;99.90;;;;;;5035759;28;20477;-78
2022/02/27 04:19:58;;;;;;;0.30;0.30;;;0.10;99.90;;;;;;5034616;28;20450;-81
2022/02/27 04:22:26;;;;;;;0.30;0.30;;;0.10;99.90;;;;;;5034912;28;20478;-83
2022/02/27 04:24:53;;;;;;;0.30;0.30;;;0.10;99.90;;;;;;5034183;28;20472;-83
2022/02/27 04:27:20;;;;;;;0.30;0.30;;;0.10;99.90;;;;;;5033744;28;20784;-84
2022/02/27 04:29:47;;;;;;;0.30;0.30;;;0.10;99.90;;;;;;5034093;28;20421;-84
2022/02/27 04:32:13;;;;;;;0.30;0.30;;;0.10;99.90;;;;;;5033703;28;20540;-83
2022/02/27 04:34:40;;;;;;;0.30;0.30;;;0.10;99.90;;;;;;5033916;28;20493;-84
2022/02/27 04:37:07;;;;;;;0.30;0.30;;;0.10;99.90;;;;;;5033699;28;20938;-84
2022/02/27 04:39:35;;;;;;;0.30;0.30;;;0.10;99.90;;;;;;5034259;28;20451;-81
2022/02/27 04:42:02;;;;;;;0.30;0.30;;;0.00;99.90;;;;;;5035279;28;20443;-82
2022/02/27 04:44:29;;;;;;;0.30;0.30;;;0.00;99.90;;;;;;5038470;28;20446;-82
2022/02/27 04:46:56;;;;;;;0.40;0.40;;;0.10;99.90;;;;;;5034250;28;20410;-82
2022/02/27 04:49:22;;;;;;;0.30;0.30;;;0.10;99.90;;;;;;5034470;28;20979;-81
2022/02/27 04:51:49;;;;;;;0.30;0.30;;;0.10;99.90;;;;;;5034343;28;20458;-81
2022/02/27 04:54:16;;;;;;;0.30;0.30;;;0.00;99.90;;;;;;5033812;28;20485;-81
2022/02/27 04:56:44;;;;;;;0.30;0.30;;;-0.10;99.90;;;;;;5033690;28;20426;-82
2022/02/27 04:59:11;;;;;;;0.30;0.30;;;-0.20;99.90;;;;;;5033430;28;20506;-82
2022/02/27 05:01:39;;;;;;;0.30;0.30;;;-0.20;99.90;;;;;;5033617;28;20457;-81
2022/02/27 05:04:06;;;;;;;0.30;0.27;;;-0.30;99.90;;;;;;5033516;28;20421;-82
2022/02/27 05:06:33;;;;;;;0.30;0.20;;;-0.30;99.90;;;;;;5033594;28;20453;-82
2022/02/27 05:09:00;;;;;;;0.30;0.30;;;-0.30;99.90;;;;;;5033650;28;20479;-82
2022/02/27 05:11:27;;;;;;;0.40;0.40;;;-0.30;99.90;;;;;;5033772;28;20813;-81
2022/02/27 05:13:55;;;;;;;1.13;1.13;;;-0.30;99.90;;;;;;5033286;28;20485;-82
2022/02/27 05:16:22;;;;;;;0.30;0.30;;;-0.30;99.90;;;;;;5033101;28;20928;-81
2022/02/27 05:18:49;;;;;;;0.30;0.30;;;-0.30;99.90;;;;;;5033251;28;20984;-82
2022/02/27 05:21:15;;;;;;;0.30;0.30;;;-0.30;99.90;;;;;;5033221;28;20447;-82
2022/02/27 05:23:42;;;;;;;0.30;0.20;;;-0.30;99.90;;;;;;5033312;28;20417;-78
2022/02/27 05:26:09;;;;;;;0.30;0.30;;;-0.30;99.90;;;;;;5033246;28;20530;-82
2022/02/27 05:28:35;;;;;;;0.30;0.30;;;-0.30;99.90;;;;;;5033171;28;20462;-80
2022/02/27 05:31:03;;;;;;;0.30;0.30;;;-0.30;99.90;;;;;;5033187;28;20478;-81
2022/02/27 05:33:30;;;;;;;0.30;0.27;;;-0.30;99.90;;;;;;5032950;28;20465;-84
2022/02/27 05:35:57;;;;;;;0.40;0.40;;;-0.30;99.90;;;;;;5033290;28;20457;-84
2022/02/27 05:38:24;;;;;;;0.40;0.40;;;-0.30;99.90;;;;;;5033066;28;20977;-83
2022/02/27 05:40:51;;;;;;;0.30;0.30;;;-0.20;99.90;;;;;;5032892;28;20969;-78
2022/02/27 05:43:18;;;;;;;0.30;0.30;;;-0.20;99.90;;;;;;5032796;28;20954;-79
2022/02/27 05:45:44;;;;;;;0.30;0.30;;;-0.10;99.90;;;;;;5033010;28;20807;-82
2022/02/27 05:48:13;;;;;;;0.30;0.30;;;-0.20;99.90;;;;;;5033044;28;20466;-82
2022/02/27 05:50:39;;;;;;;0.60;0.60;;;-0.20;99.90;;;;;;5032761;28;20458;-84
2022/02/27 05:53:06;;;;;;;0.30;0.30;;;-0.10;99.90;;;;;;5032980;28;20488;-80
2022/02/27 05:55:33;;;;;;;0.30;0.30;;;-0.10;99.90;;;;;;5032973;28;20460;-84
2022/02/27 05:57:59;;;;;;;0.30;0.30;;;-0.10;99.90;;;;;;5032944;28;20455;-78
2022/02/27 06:00:26;;;;;;;0.40;0.40;;;-0.10;99.90;;;;;;5032980;28;20447;-78
2022/02/27 06:02:53;;;;;;;0.30;0.30;;;-0.20;99.90;;;;;;5032577;28;20946;-78
2022/02/27 06:05:21;;;;;;;0.30;0.30;;;-0.20;99.90;;;;;;5033104;28;20425;-84
2022/02/27 06:07:48;;;;;;;0.30;0.30;;;-0.20;99.90;;;;;;5034567;28;20471;-84
2022/02/27 06:10:15;;;;;;;0.30;0.30;;;-0.10;99.90;;;;;;5036692;28;20476;-82
2022/02/27 06:12:48;;;;;;;0.30;0.30;;;-0.10;99.90;;;;;;5036698;28;20942;-84
2022/02/27 06:15:15;;;;;;;0.30;0.30;;;-0.10;99.90;;;;;;5036386;28;20466;-78
2022/02/27 06:17:41;;;;;;;0.30;0.30;;;-0.10;99.90;;;;;;5036152;28;20447;-79
2022/02/27 06:20:10;;;;;;;0.30;0.20;;;0.00;99.90;;;;;;5036421;28;20447;-82
2022/02/27 06:22:44;;;;;;;0.30;0.20;;;0.00;99.90;;;;;;5036273;28;20425;-84
2022/02/27 06:25:13;;;;;;;0.30;0.30;;;-0.10;99.90;;;;;;5036190;28;20448;-84
2022/02/27 06:27:42;;;;;;;0.30;0.30;;;-0.10;99.90;;;;;;5036472;28;20784;-84
2022/02/27 06:30:10;;;;;;;0.30;0.30;;;0.00;99.90;;;;;;5036927;28;20449;-85
2022/02/27 06:32:37;;;;;;;0.30;0.30;;;0.00;99.90;;;;;;5035870;28;20489;-84
2022/02/27 06:35:04;;;;;;;0.30;0.30;;;0.10;99.90;;;;;;5036152;28;20498;-84
2022/02/27 06:37:31;;;;;;;0.30;0.30;;;0.20;99.90;;;;;;5036139;28;20478;-84
2022/02/27 06:39:59;;;;;;;0.30;0.30;;;0.20;99.90;;;;;;5036183;28;20461;-84
2022/02/27 06:42:26;;;;;;;0.30;0.30;;;0.10;99.90;;;;;;5036059;28;20451;-84
2022/02/27 06:44:53;;;;;;;0.40;0.40;;;0.10;99.90;;;;;;5036134;28;20454;-82
2022/02/27 06:47:20;;;;;;;0.30;0.30;;;0.20;99.90;;;;;;5035526;28;20950;-78
2022/02/27 06:49:47;;;;;;;0.40;0.40;;;0.20;99.90;;;;;;5036065;28;20425;-78
2022/02/27 06:52:14;;;;;;;0.30;0.20;;;0.20;99.90;;;;;;5035782;28;20461;-78
2022/02/27 06:54:41;;;;;;;0.30;0.30;;;0.20;99.90;;;;;;5035643;28;20478;-78
2022/02/27 06:57:09;;;;;;;0.30;0.30;;;0.20;99.90;;;;;;5036121;28;20526;-78
2022/02/27 06:59:36;;;;;;;0.30;0.30;;;0.30;99.90;;;;;;5035652;28;20414;-78
2022/02/27 07:02:03;;;;;;;1.07;1.00;;;0.40;99.90;;;;;;5035389;28;20410;-78
2022/02/27 07:04:30;;;;;;;0.30;0.30;;;0.40;99.90;;;;;;5035252;28;20456;-78
2022/02/27 07:06:56;;;;;;;0.30;0.30;;;0.40;99.90;;;;;;5035361;28;20451;-78
2022/02/27 07:09:24;;;;;;;0.30;0.30;;;0.50;99.90;;;;;;5035390;28;20475;-78
2022/02/27 07:11:52;;;;;;;0.30;0.30;;;0.50;99.90;;;;;;5035394;28;20497;-78
2022/02/27 07:14:20;;;;;;;0.30;0.20;;;0.60;99.90;;;;;;5035351;28;20482;-78
2022/02/27 07:16:48;;;;;;;0.83;0.50;;;0.60;99.90;;;;;;5035057;28;20550;-78
2022/02/27 07:19:14;;;;;;;0.30;0.30;;;0.70;99.90;;;;;;5035232;28;20463;-79
2022/02/27 07:21:41;;;;;;;0.40;0.40;;;0.80;99.90;;;;;;5035262;28;20453;-79
2022/02/27 07:24:08;;;;;;;0.30;0.20;;;0.70;99.90;;;;;;5035230;28;20449;-79
2022/02/27 07:26:35;;;;;;;0.30;0.30;;;0.70;99.90;;;;;;5035181;28;20455;-83
2022/02/27 07:29:01;;;;;;;0.30;0.30;;;0.80;99.90;;;;;;5035187;28;20470;-80
2022/02/27 07:31:30;;;;;;;0.30;0.30;;;0.70;99.90;;;;;;5034906;28;20487;-80
2022/02/27 07:33:56;;;;;;;0.30;0.30;;;0.80;99.90;;;;;;5034932;28;20550;-79
2022/02/27 07:36:23;;;;;;;0.90;0.50;;;0.90;99.90;;;;;;5035013;28;20501;-78
2022/02/27 07:38:50;;;;;;;0.47;0.47;;;0.90;99.90;;;;;;5034880;28;20471;-82
2022/02/27 07:41:16;;;;;;;0.30;0.30;;;1.00;99.90;;;;;;5034544;28;20973;-78
2022/02/27 07:43:43;;;;;;;0.47;0.47;;;1.00;99.90;;;;;;5035064;28;20451;-83
2022/02/27 07:46:10;;;;;;;0.30;0.30;;;1.10;99.90;;;;;;5034832;28;20953;-80
2022/02/27 07:48:38;;;;;;;1.07;1.07;;;1.20;99.90;;;;;;5034810;28;20474;-81
2022/02/27 07:51:05;;;;;;;0.30;0.30;;;1.20;99.90;;;;;;5034695;28;20466;-80
2022/02/27 07:53:31;;;;;;;0.30;0.30;;;1.40;99.90;;;;;;5034533;28;20427;-80
2022/02/27 07:55:58;;;;;;;0.77;0.77;;;1.50;99.90;;;;;;5034264;28;20561;-79
2022/02/27 07:58:25;;;;;;;0.30;0.30;;;1.50;99.90;;;;;;5034466;28;20473;-82
2022/02/27 08:00:52;;;;;;;0.30;0.30;;;1.60;99.90;;;;;;5034583;28;20428;-80
2022/02/27 08:03:18;;;;;;;0.30;0.20;;;1.60;99.90;;;;;;5034636;28;20429;-78
2022/02/27 08:05:46;;;;;;;0.50;0.50;;;1.70;99.90;;;;;;5034397;28;20447;-79
2022/02/27 08:08:13;;;;;;;0.30;0.30;;;1.70;99.90;;;;;;5034293;28;20467;-84
2022/02/27 08:10:40;;;;;;;1.17;0.50;;;1.80;99.90;;;;;;5034363;28;20447;-83
2022/02/27 08:13:06;;;;;;;0.30;0.30;;;1.90;99.90;;;;;;5034176;28;20442;-81
2022/02/27 08:15:33;;;;;;;0.30;0.30;;;2.00;99.90;;;;;;5035078;28;20558;-80
2022/02/27 08:18:00;;;;;;;0.30;0.30;;;2.00;99.90;;;;;;5033817;28;20981;-76
2022/02/27 08:20:28;;;;;;;0.30;0.20;;;2.10;99.90;;;;;;5034232;28;20416;-81
2022/02/27 08:22:56;;;;;;;0.30;0.30;;;2.10;99.90;;;;;;5034359;28;20420;-82
2022/02/27 08:25:22;;;;;;;0.30;0.30;;;2.20;99.90;;;;;;5034225;28;20438;-83
2022/02/27 08:27:50;;;;;;;1.00;0.50;;;2.30;99.90;;;;;;5035056;28;20467;-81
2022/02/27 08:30:17;;;;;;;0.50;0.50;;;2.40;99.90;;;;;;5034128;28;20467;-81
2022/02/27 08:32:49;;;;;;;0.30;0.30;;;2.50;99.90;;;;;;5033536;28;20478;-80
2022/02/27 08:35:16;;;;;;;0.30;0.20;;;2.70;99.90;;;;;;5033894;28;20585;-80
2022/02/27 08:37:43;;;;;;;0.30;0.30;;;2.80;99.90;;;;;;5033731;28;20467;-78
2022/02/27 08:40:12;;;;;;;1.00;0.40;;;2.90;99.90;;;;;;5033835;28;20446;-80
2022/02/27 08:42:38;;;;;;;0.30;0.30;;;3.00;99.90;;;;;;5033687;28;20435;-79
2022/02/27 08:45:06;;;;;;;0.30;0.20;;;3.10;99.90;;;;;;5033364;28;20445;-80
2022/02/27 08:47:33;;;;;;;0.30;0.20;;;3.10;99.90;;;;;;5033301;28;20462;-79
2022/02/27 08:50:00;;;;;;;0.50;0.50;;;3.30;99.90;;;;;;5033602;28;20453;-79
2022/02/27 08:52:26;;;;;;;0.30;0.30;;;3.50;99.90;;;;;;5033550;28;20468;-79
2022/02/27 08:54:53;;;;;;;0.30;0.20;;;3.50;99.90;;;;;;5033123;28;20854;-79
2022/02/27 08:57:21;;;;;;;0.30;0.20;;;3.60;99.90;;;;;;5033088;28;20965;-79
2022/02/27 08:59:48;;;;;;;0.30;0.30;;;3.80;99.90;;;;;;5033174;28;20454;-80
2022/02/27 09:02:15;;;;;;;0.30;0.30;;;4.00;99.90;;;;;;5033445;28;20454;-79
2022/02/27 09:04:42;;;;;;;0.40;0.40;;;4.30;99.90;;;;;;5033448;28;20442;-79
2022/02/27 09:07:08;;;;;;;0.97;0.87;;;4.50;99.90;;;;;;5033048;28;20927;-79
2022/02/27 09:09:35;;;;;;;0.40;0.40;;;4.90;99.90;;;;;;5033036;28;20446;-79
2022/02/27 09:12:04;;;;;;;0.30;0.20;;;5.50;99.90;;;;;;5033100;28;20546;-79
2022/02/27 09:14:33;;;;;;;0.30;0.20;;;6.20;99.90;;;;;;5033461;28;20474;-79
2022/02/27 09:17:00;;;;;;;0.30;0.30;;;7.20;99.90;;;;;;5033287;28;20450;-79
2022/02/27 09:19:27;;;;;;;0.53;0.53;;;7.90;99.90;;;;;;5032944;28;20455;-79
2022/02/27 09:21:54;;;;;;;0.97;0.97;;;8.50;99.90;;;;;;5033226;28;20461;-79
2022/02/27 09:24:21;;;;;;;0.30;0.20;;;9.50;99.90;;;;;;5033218;28;20451;-80
2022/02/27 09:26:47;;;;;;;0.40;0.30;;;10.40;97.00;;;;;;5033154;28;20454;-79
2022/02/27 09:29:15;;;;;;;1.67;1.23;;;10.80;92.30;;;;;;5033131;28;20470;-79
2022/02/27 09:31:43;;;;;;;0.30;0.20;;;10.80;90.40;;;;;;5032846;28;20475;-80
2022/02/27 09:34:10;;;;;;;0.40;0.30;;;11.60;86.70;;;;;;5033105;28;20458;-79
2022/02/27 09:36:38;;;;;;;0.40;0.30;;;11.80;78.10;;;;;;5032736;28;20478;-79
2022/02/27 09:39:05;;;;;;;1.30;1.20;;;11.60;76.20;;;;;;5033041;28;20513;-79
2022/02/27 09:41:33;;;;;;;0.30;0.30;;;11.60;76.10;;;;;;5032788;28;20447;-80
2022/02/27 09:44:02;;;;;;;0.30;0.20;;;12.20;72.60;;;;;;5036773;28;20481;-80
2022/02/27 09:46:29;;;;;;;0.80;0.40;;;12.30;69.90;;;;;;5037058;28;20449;-80
2022/02/27 09:48:58;;;;;;;0.43;0.43;;;11.90;68.00;;;;;;5036922;28;20470;-79
2022/02/27 09:51:25;;;;;;;0.30;0.20;;;11.80;67.00;;;;;;5036872;28;20461;-79
2022/02/27 09:53:53;;;;;;;0.30;0.30;;;12.00;65.60;;;;;;5036837;28;20453;-80
2022/02/27 09:56:20;;;;;;;0.40;0.40;;;11.80;63.10;;;;;;5036763;28;20474;-79
2022/02/27 09:58:47;;;;;;;0.30;0.30;;;11.80;63.00;;;;;;5036826;28;20470;-80
2022/02/27 10:01:15;;;;;;;0.50;0.50;;;10.60;63.00;;;;;;5037610;28;20454;-79
2022/02/27 10:03:42;;;;;;;0.80;0.80;;;10.10;63.90;;;;;;5036413;28;20443;-80
2022/02/27 10:06:12;;;;;;;0.30;0.20;;;9.90;66.40;;;;;;5036626;28;20488;-80
2022/02/27 10:08:42;;;;;;;0.47;0.47;;;10.10;65.60;;;;;;5036599;28;20475;-80
2022/02/27 10:11:12;;;;;;;0.30;0.20;;;10.20;64.80;;;;;;5036413;28;20451;-80
2022/02/27 10:13:42;;;;;;;0.30;0.20;;;10.50;63.00;;;;;;5036492;28;20501;-80
2022/02/27 10:16:11;;;;;;;0.40;0.30;;;10.60;64.50;;;;;;5036235;28;20466;-80
2022/02/27 10:18:40;;;;;;;0.30;0.20;;;10.60;64.80;;;;;;5036054;28;20477;-79
2022/02/27 10:21:21;;;;;;;1.23;0.57;;;10.30;63.20;;;;;;5036333;28;20443;-80
2022/02/27 10:23:59;;;;;;;0.30;0.30;;;10.30;64.20;;;;;;5036137;28;20756;-79
2022/02/27 10:26:28;;;;;;;0.40;0.40;;;10.60;63.60;;;;;;5036028;28;20434;-80
2022/02/27 10:29:10;;;;;;;0.30;0.30;;;10.70;61.50;;;;;;5036230;28;20474;-80
2022/02/27 10:31:37;;;;;;;0.30;0.20;;;10.70;61.60;;;;;;5035944;28;20478;-80
2022/02/27 10:34:20;;;;;;;0.30;0.20;;;11.20;59.80;;;;;;5036150;28;20901;-80
2022/02/27 10:37:00;;;;;;;0.60;0.60;;;11.50;58.60;;;;;;5036067;28;20467;-80
2022/02/27 10:39:31;;;;;;;0.30;0.30;;;12.20;59.90;;;;;;5036274;28;20463;-79
2022/02/27 10:42:07;;;;;;;0.37;0.27;;;12.80;56.30;;;;;;5036016;28;20439;-79
2022/02/27 10:44:35;;;;;;;0.30;0.30;;;12.30;56.20;;;;;;5036042;28;20467;-79
2022/02/27 10:47:17;;;;;;;0.30;0.30;;;12.90;57.30;;;;;;5035601;28;20887;-79
2022/02/27 10:49:44;;;;;;;0.30;0.20;;;14.00;53.50;;;;;;5035705;28;20883;-80
2022/02/27 10:52:21;;;;;;;0.50;0.30;;;14.70;51.00;;;;;;5035498;28;20439;-80
2022/02/27 10:54:51;;;;;;;0.40;0.30;;;15.20;49.10;;;;;;5035070;28;20901;-80
2022/02/27 10:57:31;;;;;;;0.37;0.30;;;15.10;48.60;;;;;;5035416;28;20419;-80
2022/02/27 11:00:05;;;;;;;0.40;0.40;;;15.10;49.50;;;;;;5035685;28;20435;-80
2022/02/27 11:02:34;;;;;;;0.37;0.30;;;15.30;49.30;;;;;;5035346;28;20435;-79
2022/02/27 11:05:02;;;;;;;0.30;0.30;;;15.40;48.40;;;;;;5035875;28;20521;-80
2022/02/27 11:07:31;;;;;;;0.40;0.30;;;14.80;45.40;;;;;;5035269;28;20458;-80
2022/02/27 11:09:57;;;;;;;0.30;0.30;;;14.10;45.60;;;;;;5035595;28;20439;-80
2022/02/27 11:12:25;;;;;;;0.30;0.20;;;12.70;47.50;;;;;;5035515;28;20422;-80
2022/02/27 11:14:53;;;;;;;2.30;0.50;;;11.30;47.30;;;;;;5035423;28;20422;-80
2022/02/27 11:17:21;;;;;;;0.30;0.20;;;9.90;50.40;;;;;;5035753;28;20764;-80
2022/02/27 11:19:49;;;;;;;0.40;0.40;;;8.80;52.20;;;;;;5035058;28;20439;-80
2022/02/27 11:22:17;;;;;;;11.43;0.60;;;8.50;53.90;;;;;;5035011;28;20794;-80
2022/02/27 11:24:46;;;;;;;0.60;0.30;;;8.20;55.40;;;;;;5035365;28;20415;-80
2022/02/27 11:27:15;;;;;;;0.30;0.30;;;7.90;56.40;;;;;;5035173;28;20427;-79
2022/02/27 11:29:46;;;;;;;0.30;0.20;;;7.70;58.10;;;;;;5035227;28;20412;-80
2022/02/27 11:32:13;;;;;;;0.30;0.23;;;7.40;57.80;;;;;;5034773;28;20538;-80
2022/02/27 11:34:41;;;;;;;0.40;0.30;;;7.20;58.60;;;;;;5035042;28;20487;-79
2022/02/27 11:37:09;;;;;;;0.30;0.20;;;7.30;60.10;;;;;;5034538;28;20462;-80
2022/02/27 11:42:49;;;;;;;0.30;0.20;;;7.20;60.00;;;;;;5035051;28;20481;-80
2022/02/27 11:45:20;;;;;;;0.30;0.20;;;7.10;59.70;;;;;;5034853;28;20423;-79
2022/02/27 11:47:53;;;;;;;0.30;0.20;;;6.90;62.40;;;;;;5034406;28;20463;-79
2022/02/27 11:50:28;;;;;;;0.30;0.30;;;7.00;63.40;;;;;;5034783;28;20870;-80
2022/02/27 11:52:54;;;;;;;0.30;0.30;;;7.10;64.00;;;;;;5034446;28;20423;-80
2022/02/27 11:55:42;;;;;;;0.50;0.50;;;7.10;64.30;;;;;;5034246;28;20774;-80
2022/02/27 11:58:21;;;;;;;0.37;0.30;;;7.10;64.80;;;;;;5026871;28;20577;-80
2022/02/27 12:00:48;;;;;;;0.40;0.30;;;7.10;66.60;;;;;;5034439;28;20415;-80
2022/02/27 12:03:37;;;;;;;0.30;0.30;;;7.20;64.80;;;;;;5034238;28;20964;-80
2022/02/27 12:06:05;;;;;;;0.50;0.50;;;7.30;65.10;;;;;;5033775;28;20500;-80
2022/02/27 12:08:40;;;;;;;0.30;0.30;;;7.00;65.50;;;;;;5034355;28;20498;-80
2022/02/27 12:11:40;;;;;;;0.30;0.30;;;6.90;63.60;;;;;;5034403;28;20430;-80
2022/02/27 12:14:10;;;;;;;0.43;0.43;;;6.90;66.00;;;;;;5034325;28;20431;-80
2022/02/27 12:16:40;;;;;;;0.30;0.30;;;7.00;65.50;;;;;;5034191;28;20478;-80
2022/02/27 12:19:21;;;;;;;0.30;0.30;;;7.10;65.80;;;;;;5034570;28;20474;-80
2022/02/27 12:21:50;;;;;;;0.40;0.40;;;6.90;65.30;;;;;;5033847;28;20461;-80
2022/02/27 12:24:25;;;;;;;0.30;0.30;;;6.80;65.50;;;;;;5034096;28;20450;-80
2022/02/27 12:26:54;;;;;;;2.63;0.37;;;6.70;65.60;;;;;;5034037;28;20427;-79
2022/02/27 12:29:35;;;;;;;0.40;0.40;;;6.60;65.80;;;;;;5033691;28;20462;-80
2022/02/27 12:32:17;;;;;;;1.23;0.50;;;6.50;66.20;;;;;;5033650;28;20482;-80
2022/02/27 12:34:46;;;;;;;0.30;0.30;;;6.30;66.60;;;;;;5033684;28;20899;-80
2022/02/27 12:37:15;;;;;;;0.40;0.30;;;6.40;66.00;;;;;;5033484;28;20986;-80
2022/02/27 12:39:43;;;;;;;0.30;0.30;;;6.30;65.90;;;;;;5033835;28;20434;-80
2022/02/27 12:42:14;;;;;;;0.30;0.20;;;6.30;65.50;;;;;;5033524;28;20899;-80
2022/02/27 12:44:44;;;;;;;0.30;0.20;;;6.40;65.80;;;;;;5033781;28;20438;-80
2022/02/27 12:47:16;;;;;;;0.30;0.20;;;6.40;64.90;;;;;;5033667;28;20434;-80
2022/02/27 12:52:32;;;;;;;0.60;0.30;;;6.10;66.80;;;;;;5033701;28;20418;-79
2022/02/27 12:54:59;;;;;;;0.40;0.30;;;6.00;65.60;;;;;;5033850;28;20443;-80
2022/02/27 12:57:27;;;;;;;0.40;0.40;;;5.80;67.70;;;;;;5033384;28;20482;-80
2022/02/27 12:59:57;;;;;;;3.00;1.13;;;5.90;66.70;;;;;;5033475;28;20455;-79
2022/02/27 13:02:25;;;;;;;0.30;0.27;;;5.90;66.20;;;;;;5033535;28;20545;-80
2022/02/27 13:04:57;;;;;;;0.40;0.40;;;6.00;66.70;;;;;;5033488;28;20458;-79
2022/02/27 13:07:25;;;;;;;0.30;0.30;;;6.10;67.10;;;;;;5033364;28;20427;-80